createdAt,value
2019-02-18T00:02:21.320Z,69.97
2019-02-18T00:04:49.699Z,70.04
2019-02-18T00:07:18.086Z,70.00
2019-02-18T00:09:46.539Z,69.98
2019-02-18T00:12:15.003Z,70.02
2019-02-18T00:14:43.376Z,70.06
2019-02-18T00:17:11.898Z,70.17
2019-02-18T00:19:40.363Z,70.27
2019-02-18T00:22:09.082Z,70.16
2019-02-18T00:24:37.493Z,70.41
2019-02-18T00:27:06.244Z,70.49
2019-02-18T00:29:34.721Z,70.53
2019-02-18T00:32:03.415Z,70.47
2019-02-18T00:34:32.123Z,70.77
2019-02-18T00:37:00.502Z,70.74
2019-02-18T00:39:29.152Z,70.61
2019-02-18T00:41:57.558Z,70.83
2019-02-18T00:44:26.268Z,70.74
2019-02-18T00:46:54.726Z,70.84
2019-02-18T00:49:23.526Z,70.79
2019-02-18T00:51:52.191Z,70.72
2019-02-18T00:54:20.627Z,70.94
2019-02-18T00:56:49.375Z,71.10
2019-02-18T00:59:18.050Z,71.04
2019-02-18T01:01:46.623Z,70.95
2019-02-18T01:04:15.109Z,70.89
2019-02-18T01:06:43.580Z,70.53
2019-02-18T01:09:12.041Z,70.54
2019-02-18T01:11:40.537Z,70.17
2019-02-18T01:14:09.321Z,70.06
2019-02-18T01:16:37.842Z,69.95
2019-02-18T01:19:06.285Z,69.84
2019-02-18T01:21:35.007Z,69.92
2019-02-18T01:24:03.582Z,69.82
2019-02-18T01:26:31.957Z,69.90
2019-02-18T01:29:00.428Z,69.88
2019-02-18T01:31:28.872Z,69.58
2019-02-18T01:33:57.236Z,69.54
2019-02-18T01:36:25.644Z,69.64
2019-02-18T01:38:54.009Z,69.54
2019-02-18T01:41:22.419Z,69.54
2019-02-18T01:43:51.169Z,69.60
2019-02-18T01:46:19.622Z,69.58
2019-02-18T01:48:48.012Z,69.68
2019-02-18T01:51:16.398Z,70.02
2019-02-18T01:53:46.459Z,69.85
2019-02-18T01:56:14.944Z,70.16
2019-02-18T01:58:43.311Z,70.48
2019-02-18T02:01:11.965Z,70.46
2019-02-18T02:03:40.644Z,70.52
2019-02-18T02:06:09.023Z,70.67
2019-02-18T02:08:37.501Z,70.55
2019-02-18T02:11:06.024Z,70.59
2019-02-18T02:13:35.859Z,70.55
2019-02-18T02:16:06.122Z,70.52
2019-02-18T02:18:34.847Z,70.39
2019-02-18T02:21:03.205Z,70.45
2019-02-18T02:23:31.660Z,70.40
2019-02-18T02:26:00.105Z,70.30
2019-02-18T02:28:28.561Z,70.19
2019-02-18T02:30:57.000Z,70.24
2019-02-18T02:33:25.557Z,70.33
2019-02-18T02:35:54.341Z,70.17
2019-02-18T02:38:22.821Z,70.15
2019-02-18T02:40:51.262Z,70.22
2019-02-18T02:43:19.955Z,70.26
2019-02-18T02:45:48.409Z,70.13
2019-02-18T02:48:16.914Z,70.00
2019-02-18T02:50:45.466Z,69.90
2019-02-18T02:53:13.979Z,70.03
2019-02-18T02:55:42.429Z,70.29
2019-02-18T02:58:10.886Z,70.42
2019-02-18T03:00:39.341Z,70.59
2019-02-18T03:03:07.775Z,70.46
2019-02-18T03:05:36.195Z,70.67
2019-02-18T03:08:04.653Z,70.84
2019-02-18T03:10:33.440Z,70.75
2019-02-18T03:13:01.831Z,70.88
2019-02-18T03:15:30.254Z,70.99
2019-02-18T03:17:58.723Z,70.79
2019-02-18T03:20:27.086Z,70.87
2019-02-18T03:22:55.541Z,71.40
2019-02-18T03:25:28.583Z,71.49
2019-02-18T03:28:11.612Z,72.07
2019-02-18T03:30:42.707Z,72.29
2019-02-18T03:33:14.347Z,72.92
2019-02-18T03:35:42.785Z,72.53
2019-02-18T03:38:11.178Z,72.24
2019-02-18T03:40:39.612Z,71.92
2019-02-18T03:43:08.077Z,71.80
2019-02-18T03:45:36.529Z,71.78
2019-02-18T03:48:04.998Z,71.76
2019-02-18T03:50:33.381Z,71.84
2019-02-18T03:53:01.842Z,71.42
2019-02-18T03:55:30.300Z,71.35
2019-02-18T03:57:58.765Z,71.46
2019-02-18T04:00:27.235Z,71.46
2019-02-18T04:02:55.668Z,71.40
2019-02-18T04:05:24.080Z,71.58
2019-02-18T04:07:52.428Z,71.56
2019-02-18T04:10:20.849Z,71.54
2019-02-18T04:12:49.222Z,71.69
2019-02-18T04:15:18.159Z,71.51
2019-02-18T04:17:46.543Z,71.52
2019-02-18T04:20:15.191Z,71.85
2019-02-18T04:22:43.695Z,71.89
2019-02-18T04:25:12.181Z,72.12
2019-02-18T04:27:40.547Z,71.88
2019-02-18T04:30:13.692Z,71.98
2019-02-18T04:32:42.211Z,72.03
2019-02-18T04:35:10.670Z,72.08
2019-02-18T04:37:39.147Z,72.03
2019-02-18T04:40:09.324Z,72.09
2019-02-18T04:42:37.756Z,72.80
2019-02-18T04:45:08.680Z,73.57
2019-02-18T04:47:37.080Z,73.88
2019-02-18T04:50:06.997Z,74.31
2019-02-18T04:52:35.538Z,74.36
2019-02-18T04:55:05.984Z,74.22
2019-02-18T04:57:34.390Z,74.07
2019-02-18T05:00:02.908Z,74.24
2019-02-18T05:02:31.463Z,74.33
2019-02-18T05:05:00.359Z,74.18
2019-02-18T05:07:28.967Z,73.97
2019-02-18T05:09:57.443Z,73.95
2019-02-18T05:12:25.818Z,74.22
2019-02-18T05:14:54.245Z,74.61
2019-02-18T05:17:22.779Z,74.96
2019-02-18T05:19:51.584Z,74.95
2019-02-18T05:22:20.298Z,75.14
2019-02-18T05:24:48.959Z,75.13
2019-02-18T05:27:17.317Z,75.32
2019-02-18T05:29:45.716Z,75.46
2019-02-18T05:32:14.170Z,75.55
2019-02-18T05:34:42.639Z,75.36
2019-02-18T05:37:11.092Z,75.32
2019-02-18T05:39:39.525Z,75.29
2019-02-18T05:42:07.987Z,75.35
2019-02-18T05:44:36.547Z,75.40
2019-02-18T05:47:05.339Z,76.05
2019-02-18T05:49:33.888Z,76.32
2019-02-18T05:52:02.281Z,76.16
2019-02-18T05:54:30.644Z,76.29
2019-02-18T05:56:59.215Z,76.44
2019-02-18T05:59:27.589Z,76.18
2019-02-18T06:01:55.945Z,75.95
2019-02-18T06:04:24.449Z,76.14
2019-02-18T06:06:52.876Z,76.10
2019-02-18T06:09:29.113Z,76.06
2019-02-18T06:11:51.391Z,75.88
2019-02-18T06:14:19.797Z,76.04
2019-02-18T06:16:48.169Z,76.26
2019-02-18T06:19:16.636Z,76.37
2019-02-18T06:21:45.142Z,76.28
2019-02-18T06:24:13.627Z,76.28
2019-02-18T06:26:42.212Z,76.40
2019-02-18T06:29:10.761Z,76.47
2019-02-18T06:31:39.430Z,76.38
2019-02-18T06:34:07.876Z,76.25
2019-02-18T06:36:36.343Z,76.11
2019-02-18T06:39:06.286Z,75.88
2019-02-18T06:41:34.717Z,75.87
2019-02-18T06:44:03.138Z,76.09
2019-02-18T06:46:35.942Z,75.93
2019-02-18T06:49:08.980Z,75.85
2019-02-18T06:51:37.712Z,76.11
2019-02-18T06:54:06.087Z,76.51
2019-02-18T06:56:36.203Z,76.61
2019-02-18T06:59:06.378Z,76.37
2019-02-18T07:01:38.882Z,76.40
2019-02-18T07:04:08.900Z,76.29
2019-02-18T07:06:41.395Z,76.10
2019-02-18T07:09:17.115Z,76.38
2019-02-18T07:11:47.228Z,76.13
2019-02-18T07:14:15.756Z,76.13
2019-02-18T07:16:44.598Z,76.15
2019-02-18T07:19:12.989Z,75.89
2019-02-18T07:21:41.468Z,75.24
2019-02-18T07:24:09.898Z,75.59
2019-02-18T07:26:38.429Z,75.56
2019-02-18T07:29:06.838Z,76.08
2019-02-18T07:31:35.367Z,75.91
2019-02-18T07:34:03.841Z,76.04
2019-02-18T07:36:32.259Z,75.98
2019-02-18T07:39:01.063Z,75.56
2019-02-18T07:41:29.726Z,75.59
2019-02-18T07:43:58.192Z,75.57
2019-02-18T07:46:26.664Z,75.40
2019-02-18T07:48:55.288Z,74.71
2019-02-18T07:51:23.738Z,74.50
2019-02-18T07:53:52.204Z,73.82
2019-02-18T07:56:20.598Z,73.37
2019-02-18T07:58:49.028Z,73.39
2019-02-18T08:01:17.419Z,73.33
2019-02-18T08:03:45.796Z,73.43
2019-02-18T08:06:14.276Z,73.12
2019-02-18T08:08:42.668Z,72.62
2019-02-18T08:11:11.107Z,72.70
2019-02-18T08:13:39.524Z,72.71
2019-02-18T08:16:07.955Z,72.55
2019-02-18T08:18:36.364Z,72.08
2019-02-18T08:21:05.151Z,71.79
2019-02-18T08:23:33.684Z,71.54
2019-02-18T08:26:02.137Z,71.40
2019-02-18T08:28:30.880Z,71.49
2019-02-18T08:30:59.270Z,71.46
2019-02-18T08:33:27.812Z,70.98
2019-02-18T08:35:56.346Z,70.70
2019-02-18T08:38:24.944Z,69.73
2019-02-18T08:40:53.313Z,69.74
2019-02-18T08:43:21.681Z,69.49
2019-02-18T08:45:50.083Z,69.42
2019-02-18T08:48:18.446Z,68.72
2019-02-18T08:50:46.839Z,68.94
2019-02-18T08:53:15.322Z,68.65
2019-02-18T08:55:43.698Z,68.71
2019-02-18T08:58:12.086Z,68.21
2019-02-18T09:00:40.567Z,67.60
2019-02-18T09:03:09.006Z,67.39
2019-02-18T09:05:37.577Z,67.36
2019-02-18T09:08:06.263Z,67.26
2019-02-18T09:10:34.632Z,66.33
2019-02-18T09:13:03.101Z,66.24
2019-02-18T09:15:31.469Z,65.64
2019-02-18T09:18:00.022Z,65.29
2019-02-18T09:20:28.478Z,65.04
2019-02-18T09:23:04.068Z,64.43
2019-02-18T09:25:36.630Z,64.19
2019-02-18T09:28:05.096Z,64.21
2019-02-18T09:30:35.451Z,64.40
2019-02-18T09:33:03.998Z,64.42
2019-02-18T09:35:32.490Z,63.63
2019-02-18T09:38:00.980Z,63.10
2019-02-18T09:40:29.423Z,62.58
2019-02-18T09:42:58.076Z,62.37
2019-02-18T09:45:26.562Z,62.39
2019-02-18T09:47:55.039Z,61.74
2019-02-18T09:50:23.501Z,61.17
2019-02-18T09:52:52.449Z,60.85
2019-02-18T09:55:21.150Z,60.64
2019-02-18T09:57:49.612Z,60.51
2019-02-18T10:00:18.368Z,60.01
2019-02-18T10:02:46.798Z,58.83
2019-02-18T10:05:15.283Z,58.39
2019-02-18T10:07:43.655Z,57.99
2019-02-18T10:10:12.176Z,57.91
2019-02-18T10:12:40.644Z,57.26
2019-02-18T10:15:12.370Z,56.95
2019-02-18T10:17:40.962Z,57.24
2019-02-18T10:20:13.266Z,56.60
2019-02-18T10:22:41.686Z,56.03
2019-02-18T10:25:12.029Z,56.63
2019-02-18T10:27:40.640Z,56.27
2019-02-18T10:30:11.283Z,56.28
2019-02-18T10:32:39.816Z,55.64
2019-02-18T10:35:10.867Z,54.67
2019-02-18T10:37:39.317Z,54.60
2019-02-18T10:40:09.651Z,54.60
2019-02-18T10:42:38.047Z,54.37
2019-02-18T10:45:13.064Z,54.24
2019-02-18T10:47:41.580Z,54.56
2019-02-18T10:50:11.648Z,53.49
2019-02-18T10:52:40.338Z,53.64
2019-02-18T10:55:11.239Z,53.03
2019-02-18T10:57:40.157Z,53.20
2019-02-18T11:00:14.783Z,52.57
2019-02-18T11:02:43.253Z,52.97
2019-02-18T11:05:11.758Z,52.35
2019-02-18T11:07:40.477Z,52.61
2019-02-18T11:10:14.399Z,52.46
2019-02-18T11:12:43.171Z,52.19
2019-02-18T11:15:13.215Z,51.85
2019-02-18T11:17:42.435Z,51.45
2019-02-18T11:20:11.853Z,51.05
2019-02-18T11:22:40.429Z,51.73
2019-02-18T11:25:12.993Z,51.41
2019-02-18T11:27:41.446Z,49.79
2019-02-18T11:30:19.524Z,50.52
2019-02-18T11:32:47.933Z,50.85
2019-02-18T11:35:16.440Z,50.99
2019-02-18T11:37:44.934Z,50.90
2019-02-18T11:40:18.296Z,50.90
2019-02-18T11:42:46.800Z,51.10
2019-02-18T11:45:17.309Z,50.67
2019-02-18T11:47:45.734Z,50.69
2019-02-18T11:50:15.191Z,50.16
2019-02-18T11:52:43.723Z,50.07
2019-02-18T11:55:13.353Z,49.57
2019-02-18T11:57:42.255Z,49.76
2019-02-18T12:00:12.904Z,50.04
2019-02-18T12:02:41.332Z,48.91
2019-02-18T12:05:10.888Z,49.05
2019-02-18T12:07:39.411Z,48.49
2019-02-18T12:10:10.202Z,48.60
2019-02-18T12:12:39.034Z,48.45
2019-02-18T12:15:12.799Z,46.87
2019-02-18T12:17:41.339Z,46.98
2019-02-18T12:20:14.134Z,47.03
2019-02-18T12:22:42.676Z,47.17
2019-02-18T12:25:12.120Z,46.86
2019-02-18T12:27:40.859Z,45.73
2019-02-18T12:30:14.178Z,45.00
2019-02-18T12:32:42.862Z,45.08
2019-02-18T12:35:11.463Z,45.28
2019-02-18T12:37:39.944Z,45.83
2019-02-18T12:40:10.495Z,44.99
2019-02-18T12:42:38.953Z,44.02
2019-02-18T12:45:10.902Z,44.55
2019-02-18T12:47:41.007Z,44.88
2019-02-18T12:50:10.817Z,43.85
2019-02-18T12:52:39.281Z,44.13
2019-02-18T12:55:09.225Z,43.21
2019-02-18T12:57:38.144Z,43.14
2019-02-18T13:00:12.993Z,43.60
2019-02-18T13:02:44.703Z,43.42
2019-02-18T13:05:12.545Z,43.24
2019-02-18T13:07:40.907Z,41.74
2019-02-18T13:10:10.074Z,41.75
2019-02-18T13:12:38.602Z,42.66
2019-02-18T13:15:12.824Z,42.55
2019-02-18T13:17:42.849Z,42.76
2019-02-18T13:20:11.498Z,41.75
2019-02-18T13:22:40.930Z,41.76
2019-02-18T13:25:10.426Z,42.17
2019-02-18T13:27:39.123Z,42.53
2019-02-18T13:30:21.242Z,42.66
2019-02-18T13:32:49.782Z,42.76
2019-02-18T13:35:18.249Z,42.92
2019-02-18T13:37:47.007Z,42.91
2019-02-18T13:40:16.568Z,42.85
2019-02-18T13:42:45.532Z,42.25
2019-02-18T13:45:14.091Z,42.48
2019-02-18T13:47:42.527Z,42.64
2019-02-18T13:50:12.361Z,42.63
2019-02-18T13:52:40.825Z,41.59
2019-02-18T13:55:11.247Z,40.80
2019-02-18T13:57:40.079Z,41.52
2019-02-18T14:00:15.435Z,41.25
2019-02-18T14:02:43.803Z,40.80
2019-02-18T14:05:12.643Z,41.43
2019-02-18T14:07:41.105Z,41.76
2019-02-18T14:10:09.632Z,40.90
2019-02-18T14:12:38.386Z,41.04
2019-02-18T14:15:09.686Z,41.79
2019-02-18T14:17:38.213Z,40.88
2019-02-18T14:20:11.931Z,40.73
2019-02-18T14:22:40.390Z,40.53
2019-02-18T14:25:10.313Z,40.89
2019-02-18T14:27:38.740Z,41.83
2019-02-18T14:30:10.425Z,42.72
2019-02-18T14:32:38.879Z,42.38
2019-02-18T14:35:08.020Z,41.51
2019-02-18T14:37:36.408Z,41.78
2019-02-18T14:40:05.133Z,42.02
2019-02-18T14:42:33.926Z,41.27
2019-02-18T14:45:02.407Z,38.69
2019-02-18T14:47:30.923Z,36.52
2019-02-18T14:49:59.399Z,35.50
2019-02-18T14:52:27.867Z,35.61
2019-02-18T14:54:56.317Z,36.81
2019-02-18T14:57:25.700Z,37.86
2019-02-18T14:59:54.152Z,39.29
2019-02-18T15:02:22.915Z,40.44
2019-02-18T15:04:51.344Z,41.17
2019-02-18T15:07:19.889Z,41.76
2019-02-18T15:09:48.325Z,42.31
2019-02-18T15:12:17.484Z,42.41
2019-02-18T15:14:45.857Z,42.90
2019-02-18T15:17:14.690Z,43.17
2019-02-18T15:19:43.390Z,43.18
2019-02-18T15:22:11.781Z,43.16
2019-02-18T15:24:40.235Z,42.79
2019-02-18T15:27:08.701Z,42.67
2019-02-18T15:29:37.144Z,43.12
2019-02-18T15:32:05.791Z,42.49
2019-02-18T15:34:34.256Z,42.32
2019-02-18T15:37:02.703Z,42.75
2019-02-18T15:39:31.458Z,42.56
2019-02-18T15:41:59.969Z,42.06
2019-02-18T15:44:28.819Z,42.26
2019-02-18T15:46:57.208Z,42.67
2019-02-18T15:49:25.685Z,42.54
2019-02-18T15:51:54.134Z,42.99
2019-02-18T15:54:22.666Z,43.04
2019-02-18T15:56:51.492Z,43.23
2019-02-18T15:59:20.171Z,43.54
2019-02-18T16:01:48.687Z,43.83
2019-02-18T16:04:17.249Z,43.87
2019-02-18T16:06:45.716Z,44.23
2019-02-18T16:09:14.366Z,44.04
2019-02-18T16:11:43.168Z,44.34
2019-02-18T16:14:11.879Z,44.70
2019-02-18T16:16:40.400Z,44.96
2019-02-18T16:19:08.884Z,45.19
2019-02-18T16:21:37.605Z,45.03
2019-02-18T16:24:06.336Z,45.57
2019-02-18T16:26:34.770Z,45.98
2019-02-18T16:29:03.464Z,46.08
2019-02-18T16:31:32.229Z,46.39
2019-02-18T16:34:00.999Z,46.86
2019-02-18T16:36:29.471Z,47.29
2019-02-18T16:38:58.499Z,47.69
2019-02-18T16:41:26.934Z,47.83
2019-02-18T16:43:55.510Z,48.09
2019-02-18T16:46:24.321Z,48.39
2019-02-18T16:48:53.357Z,48.47
2019-02-18T16:51:21.740Z,48.39
2019-02-18T16:53:50.565Z,48.66
2019-02-18T16:56:19.006Z,49.10
2019-02-18T16:58:47.788Z,49.39
2019-02-18T17:01:16.475Z,49.58
2019-02-18T17:03:45.161Z,49.82
2019-02-18T17:06:13.622Z,50.14
2019-02-18T17:08:42.135Z,50.40
2019-02-18T17:11:10.879Z,51.01
2019-02-18T17:13:39.348Z,51.17
2019-02-18T17:16:07.752Z,51.41
2019-02-18T17:18:36.286Z,51.64
2019-02-18T17:21:04.778Z,52.09
2019-02-18T17:23:33.142Z,52.28
2019-02-18T17:26:01.631Z,52.48
2019-02-18T17:28:30.378Z,52.66
2019-02-18T17:30:59.005Z,52.87
2019-02-18T17:33:27.549Z,53.00
2019-02-18T17:35:55.980Z,53.22
2019-02-18T17:38:24.379Z,53.59
2019-02-18T17:40:52.774Z,53.73
2019-02-18T17:43:21.178Z,53.98
2019-02-18T17:45:49.655Z,54.17
2019-02-18T17:48:18.117Z,54.53
2019-02-18T17:50:46.779Z,54.67
2019-02-18T17:53:15.400Z,54.58
2019-02-18T17:55:43.921Z,54.31
2019-02-18T17:58:12.577Z,54.35
2019-02-18T18:00:42.624Z,54.48
2019-02-18T18:03:11.000Z,54.53
2019-02-18T18:05:39.817Z,54.47
2019-02-18T18:08:08.218Z,54.58
2019-02-18T18:10:36.915Z,54.43
2019-02-18T18:13:05.467Z,54.27
2019-02-18T18:15:33.991Z,54.26
2019-02-18T18:18:02.525Z,54.38
2019-02-18T18:20:31.109Z,54.45
2019-02-18T18:22:59.689Z,54.52
2019-02-18T18:25:28.646Z,54.46
2019-02-18T18:27:57.380Z,54.75
2019-02-18T18:30:25.816Z,54.80
2019-02-18T18:32:54.397Z,55.05
2019-02-18T18:35:23.174Z,54.96
2019-02-18T18:37:51.932Z,55.06
2019-02-18T18:40:20.728Z,55.28
2019-02-18T18:42:49.192Z,55.45
2019-02-18T18:45:18.117Z,55.59
2019-02-18T18:47:46.685Z,55.74
2019-02-18T18:50:19.477Z,55.94
2019-02-18T18:52:48.057Z,56.21
2019-02-18T18:55:16.744Z,56.52
2019-02-18T18:57:45.259Z,56.60
2019-02-18T19:00:20.831Z,56.66
2019-02-18T19:02:49.681Z,56.94
2019-02-18T19:05:18.553Z,56.85
2019-02-18T19:07:47.059Z,56.85
2019-02-18T19:10:15.588Z,56.79
2019-02-18T19:12:44.372Z,56.97
2019-02-18T19:15:14.701Z,56.84
2019-02-18T19:17:43.797Z,56.81
2019-02-18T19:20:12.942Z,56.90
2019-02-18T19:22:42.033Z,56.97
2019-02-18T19:25:13.825Z,56.98
2019-02-18T19:27:42.571Z,56.97
2019-02-18T19:30:22.836Z,56.98
2019-02-18T19:32:51.761Z,57.04
2019-02-18T19:35:20.292Z,57.23
2019-02-18T19:37:48.771Z,57.19
2019-02-18T19:40:17.300Z,57.25
2019-02-18T19:42:45.846Z,57.31
2019-02-18T19:45:16.901Z,57.41
2019-02-18T19:47:45.521Z,57.50
2019-02-18T19:50:14.001Z,57.66
2019-02-18T19:52:42.753Z,57.66
2019-02-18T19:55:12.297Z,57.78
2019-02-18T19:57:42.386Z,57.82
2019-02-18T20:00:16.042Z,58.10
2019-02-18T20:02:44.542Z,58.15
2019-02-18T20:05:13.212Z,57.93
2019-02-18T20:07:41.952Z,58.05
2019-02-18T20:10:11.514Z,57.94
2019-02-18T20:12:39.989Z,57.93
2019-02-18T20:15:12.034Z,58.01
2019-02-18T20:17:40.547Z,58.13
2019-02-18T20:20:11.394Z,58.24
2019-02-18T20:22:39.931Z,58.38
2019-02-18T20:25:09.301Z,58.42
2019-02-18T20:27:37.902Z,58.52
2019-02-18T20:30:10.140Z,58.76
2019-02-18T20:32:38.566Z,58.90
2019-02-18T20:35:08.391Z,59.05
2019-02-18T20:37:37.151Z,59.28
2019-02-18T20:40:07.150Z,59.44
2019-02-18T20:42:35.729Z,59.50
2019-02-18T20:45:05.242Z,59.64
2019-02-18T20:47:33.728Z,59.82
2019-02-18T20:50:02.329Z,59.92
2019-02-18T20:52:30.774Z,59.92
2019-02-18T20:54:59.344Z,60.06
2019-02-18T20:57:27.823Z,60.33
2019-02-18T20:59:56.285Z,60.29
2019-02-18T21:02:24.921Z,60.36
2019-02-18T21:04:53.345Z,60.51
2019-02-18T21:07:21.873Z,60.56
2019-02-18T21:09:50.355Z,60.58
2019-02-18T21:12:20.078Z,60.87
2019-02-18T21:14:49.121Z,60.99
2019-02-18T21:17:17.762Z,60.86
2019-02-18T21:19:46.217Z,60.87
2019-02-18T21:22:14.696Z,60.73
2019-02-18T21:24:43.390Z,60.79
2019-02-18T21:27:11.852Z,60.91
2019-02-18T21:29:40.599Z,60.74
2019-02-18T21:32:08.978Z,60.78
2019-02-18T21:34:37.440Z,61.11
2019-02-18T21:37:06.318Z,61.16
2019-02-18T21:39:34.682Z,61.31
2019-02-18T21:42:03.257Z,61.24
2019-02-18T21:44:31.623Z,61.67
2019-02-18T21:47:00.142Z,61.70
2019-02-18T21:49:28.562Z,61.96
2019-02-18T21:51:57.224Z,62.22
2019-02-18T21:54:25.695Z,62.55
2019-02-18T21:56:54.141Z,62.51
2019-02-18T21:59:22.552Z,62.93
2019-02-18T22:01:51.370Z,63.29
2019-02-18T22:04:19.802Z,63.42
2019-02-18T22:06:48.196Z,63.37
2019-02-18T22:09:16.684Z,63.54
2019-02-18T22:11:45.123Z,63.66
2019-02-18T22:14:13.508Z,63.90
2019-02-18T22:16:42.002Z,63.91
2019-02-18T22:19:10.442Z,64.15
2019-02-18T22:24:06.498Z,63.88
2019-02-18T22:26:34.893Z,63.89
2019-02-18T22:29:03.344Z,63.97
2019-02-18T22:31:31.802Z,64.07
2019-02-18T22:34:00.195Z,64.18
2019-02-18T22:36:28.637Z,64.31
2019-02-18T22:38:57.107Z,64.22
2019-02-18T22:41:25.543Z,64.16
2019-02-18T22:43:54.119Z,63.94
2019-02-18T22:46:22.495Z,64.15
2019-02-18T22:48:50.862Z,64.30
2019-02-18T22:51:19.284Z,64.57
2019-02-18T22:53:47.646Z,64.85
2019-02-18T22:56:16.113Z,64.91
2019-02-18T22:58:44.508Z,64.81
2019-02-18T23:01:13.036Z,65.10
2019-02-18T23:03:41.710Z,64.89
